Saint James, Maryland
Current Conditions -  °F | °C
As of 9:53 AM on Wednesday 26 Nov 2014 (Local Time) from KHGR Reporting Station
Moderate Snow Moderate Snow  
Wind Chill: 27°   Ceiling: 1400
Heat Index: 34°   Visibility: 0.75mi
Dew Point: 32°   Wind: 8mph
Humidity: 92%   Direction: 350°N
Pressure: 30.09"   Gusts: NA
Location:  39.56°N, 77.76°W
Report Text: KHGR 261453Z 35007KT 3/4SM SN BR FEW003 BKN014 OVC020 01/00 A3009 RMK AO2 RAE30SNB30 SLP204 P0011 60024 T00110000 53002
Loading
Personal Weather Stations






























Interactive Weather Map New forecast layout! Learn more

10-Day Weather Forecast

Advertisements
Track Severe Weather on mobile